Time;durP1;ratioP1;P1;durP2;ratioP2;P2;SDS_P1;SDS_P2;PMS_P1;PMS_P2;Temp;Humidity;BMP_temperature;BMP_pressure;BME280_temperature;BME280_humidity;BME280_pressure;Samples;Min_cycle;Max_cycle;Signal;HPM_P1;HPM_P2
2022/01/12 00:01:28;;;;;;;;;37.25;30.00;;;;;4.81;41.94;100585.09;6103151;28;98014;-65
2022/01/12 00:04:32;;;;;;;;;34.40;27.40;;;;;4.80;41.77;100583.41;6086167;28;98664;-66
2022/01/12 00:07:37;;;;;;;;;32.80;29.00;;;;;4.75;41.77;100575.84;6087242;28;96967;-65
2022/01/12 00:10:40;;;;;;;;;28.60;25.60;;;;;4.69;41.49;100580.94;6088582;28;97020;-65
2022/01/12 00:13:44;;;;;;;;;28.40;25.60;;;;;4.58;41.55;100576.56;6088354;28;97522;-67
2022/01/12 00:16:48;;;;;;;;;30.25;27.50;;;;;4.29;41.99;100581.09;6088538;28;97024;-66
2022/01/12 00:19:52;;;;;;;;;29.00;27.00;;;;;4.18;42.47;100575.88;6088297;28;98485;-65
2022/01/12 00:22:57;;;;;;;;;31.60;25.60;;;;;4.24;42.73;100583.34;6088615;28;97784;-65
2022/01/12 00:26:04;;;;;;;;;30.40;26.00;;;;;4.32;42.06;100583.47;6089423;28;97014;-67
2022/01/12 00:35:58;;;;;;;;;29.00;26.00;;;;;4.51;42.11;100596.81;6089975;28;97997;-65
2022/01/12 00:39:06;;;;;;;;;30.67;28.00;;;;;4.58;42.38;100589.94;6088767;28;97605;-65
2022/01/12 00:42:13;;;;;;;;;31.50;27.00;;;;;4.66;42.01;100602.56;6070372;28;98451;-65
2022/01/12 00:45:17;;;;;;;;;33.60;27.00;;;;;4.64;42.19;100592.00;6089915;28;96471;-66
2022/01/12 00:48:20;;;;;;;;;27.60;26.00;;;;;4.68;42.21;100592.59;6070880;28;99820;-64
2022/01/12 00:51:30;;;;;;;;;34.00;28.00;;;;;4.66;42.17;100586.53;6089455;28;96479;-65
2022/01/12 00:54:35;;;;;;;;;31.25;26.00;;;;;4.67;42.21;100590.91;6089499;28;97582;-64
2022/01/12 00:57:40;;;;;;;;;32.40;27.40;;;;;4.69;42.31;100584.41;6071969;28;96759;-65
2022/01/12 01:00:43;;;;;;;;;32.60;28.00;;;;;4.75;42.21;100585.69;6089878;28;97166;-65
2022/01/12 01:03:47;;;;;;;;;28.50;26.75;;;;;4.76;42.23;100584.69;6087759;28;99367;-65
2022/01/12 01:06:52;;;;;;;;;32.00;28.00;;;;;4.78;42.22;100585.41;6087748;28;97528;-66
2022/01/12 01:10:03;;;;;;;;;35.00;30.00;;;;;4.73;42.19;100582.31;6090025;28;97292;-65
2022/01/12 01:13:09;;;;;;;;;35.50;31.00;;;;;4.71;42.50;100585.13;6092385;28;98118;-66
2022/01/12 01:16:19;;;;;;;;;38.00;32.60;;;;;4.69;42.28;100581.75;6076222;28;99648;-65
2022/01/12 01:26:06;;;;;;;;;34.00;31.00;;;;;4.74;42.20;100592.84;6091829;28;96651;-65
2022/01/12 01:29:10;;;;;;;;;38.75;30.25;;;;;4.72;42.55;100589.50;6091621;28;97264;-65
2022/01/12 01:32:14;;;;;;;;;33.25;29.25;;;;;4.71;42.31;100594.97;6091292;28;97576;-66
2022/01/12 01:35:18;;;;;;;;;32.60;28.40;;;;;4.71;42.37;100597.63;6099584;28;97589;-65
2022/01/12 01:38:22;;;;;;;;;34.20;29.00;;;;;4.66;42.04;100591.88;6099870;28;97485;-65
2022/01/12 01:41:27;;;;;;;;;32.00;29.00;;;;;4.68;42.17;100595.25;6067687;28;97467;-66
2022/01/12 01:53:18;;;;;;;;;34.60;29.60;;;;;4.66;42.04;100591.88;6070874;28;96627;-65
2022/01/12 01:54:42;;;;;;;;;38.00;30.25;;;;;4.70;42.33;100587.94;6091429;28;98411;-65
2022/01/12 01:57:48;;;;;;;;;31.00;28.80;;;;;4.63;42.28;100581.50;6095116;28;97433;-65
2022/01/12 02:00:51;;;;;;;;;36.80;30.80;;;;;4.49;42.32;100550.72;6089560;28;96903;-66
2022/01/12 02:04:02;;;;;;;;;39.20;31.80;;;;;4.70;42.45;100582.59;6106093;28;96546;-65
2022/01/12 02:07:07;;;;;;;;;38.40;32.00;;;;;4.77;42.68;100584.56;6106148;28;96740;-65
2022/01/12 02:10:10;;;;;;;;;44.00;32.40;;;;;4.80;42.44;100586.09;6091061;28;96452;-66
2022/01/12 02:13:20;;;;;;;;;41.00;32.60;;;;;4.82;42.63;100589.47;6090640;28;96651;-65
2022/01/12 02:16:30;;;;;;;;;42.00;33.00;;;;;4.78;42.53;100588.94;6074916;28;97969;-66
2022/01/12 02:19:53;;;;;;;;;42.50;33.00;;;;;4.72;42.89;100581.47;6090567;28;97522;-65
2022/01/12 02:36:33;;;;;;;;;44.75;34.75;;;;;4.72;43.21;100576.13;6074496;28;96773;-66
2022/01/12 02:39:54;;;;;;;;;41.60;33.00;;;;;4.70;42.80;100580.75;6090594;28;96592;-65
2022/01/12 02:43:07;;;;;;;;;38.40;32.00;;;;;4.71;42.37;100577.09;6089875;28;96728;-66
2022/01/12 02:56:21;;;;;;;;;36.50;28.25;;;;;4.78;41.98;100583.59;6092198;28;96672;-66
2022/01/12 02:59:25;;;;;;;;;31.60;28.20;;;;;4.80;41.63;100589.59;6066821;28;96623;-65
2022/01/12 03:02:32;;;;;;;;;34.20;30.00;;;;;4.79;42.21;100587.91;6078557;28;98404;-65
2022/01/12 03:05:45;;;;;;;;;32.00;26.80;;;;;4.82;41.63;100581.47;6090214;28;96619;-65
2022/01/12 03:08:50;;;;;;;;;29.50;24.50;;;;;4.70;40.50;100585.25;6090097;28;97412;-65
2022/01/12 03:11:54;;;;;;;;;27.25;24.00;;;;;4.64;40.25;100588.53;6089600;28;96671;-65
2022/01/12 03:14:58;;;;;;;;;30.40;24.00;;;;;4.55;40.51;100584.84;6088683;28;97521;-65
2022/01/12 03:18:01;;;;;;;;;27.75;24.25;;;;;4.54;40.50;100587.69;6089557;28;96671;-65
2022/01/12 03:21:06;;;;;;;;;27.25;22.75;;;;;4.49;40.93;100579.25;6089724;28;97203;-65
2022/01/12 03:24:10;;;;;;;;;25.60;22.60;;;;;4.46;40.89;100585.72;6105996;28;97094;-65
2022/01/12 03:27:16;;;;;;;;;30.25;25.50;;;;;4.35;41.32;100584.00;6089544;28;96971;-65
2022/01/12 03:30:20;;;;;;;;;26.20;24.00;;;;;4.39;41.33;100584.59;6073084;28;98549;-65
2022/01/12 03:33:49;;;;;;;;;32.60;27.40;;;;;4.46;41.60;100582.19;6054265;28;97538;-65
2022/01/12 03:37:16;;;;;;;;;31.80;27.80;;;;;4.41;41.33;100573.75;6047714;28;96957;-65
2022/01/12 03:40:20;;;;;;;;;34.20;26.00;;;;;4.43;41.44;100571.81;6046555;28;97541;-65
2022/01/12 03:43:27;;;;;;;;;31.25;27.50;;;;;4.47;41.49;100571.38;6042218;28;98264;-66
2022/01/12 03:46:36;;;;;;;;;27.25;25.25;;;;;4.38;41.29;100572.22;6048180;28;96742;-65
2022/01/12 03:49:40;;;;;;;;;30.25;27.25;;;;;4.47;41.81;100570.53;6065639;28;96466;-66
2022/01/12 03:52:44;;;;;;;;;25.40;22.00;;;;;4.53;41.19;100569.97;6064313;28;98513;-67
2022/01/12 03:55:48;;;;;;;;;26.00;22.00;;;;;4.57;40.82;100571.38;6049242;28;96579;-66
2022/01/12 03:58:52;;;;;;;;;21.40;19.00;;;;;4.63;40.64;100563.63;6049324;28;97393;-67
2022/01/12 04:01:58;;;;;;;;;23.00;19.00;;;;;4.63;40.03;100571.66;6050192;28;96562;-67
2022/01/12 04:05:12;;;;;;;;;18.20;16.00;;;;;4.63;40.18;100571.66;6033762;28;98850;-65
2022/01/12 04:08:20;;;;;;;;;21.00;17.00;;;;;4.61;40.25;100572.75;6032856;28;99521;-65
2022/01/12 04:11:24;;;;;;;;;17.00;15.00;;;;;4.57;40.13;100566.88;6064900;28;96558;-65
2022/01/12 04:14:28;;;;;;;;;18.20;16.00;;;;;4.57;40.08;100574.88;6072933;28;96723;-65
2022/01/12 04:17:32;;;;;;;;;16.60;15.60;;;;;4.59;39.90;100574.75;6072731;28;96478;-65
2022/01/12 04:20:38;;;;;;;;;19.80;16.80;;;;;4.59;39.87;100574.75;6047472;28;96849;-67
2022/01/12 04:23:42;;;;;;;;;20.00;17.33;;;;;4.57;39.94;100577.56;6049341;28;97094;-66
2022/01/12 04:26:46;;;;;;;;;16.20;14.20;;;;;4.51;40.27;100577.28;6048862;28;98196;-66
2022/01/12 04:29:51;;;;;;;;;17.00;16.00;;;;;4.49;40.06;100580.09;6066918;28;96667;-66
2022/01/12 04:32:54;;;;;;;;;18.60;17.00;;;;;4.50;40.08;100580.91;6071639;28;98204;-66
2022/01/12 04:35:58;;;;;;;;;19.60;16.60;;;;;4.52;39.79;100587.81;6072684;28;96582;-67
2022/01/12 04:39:05;;;;;;;;;17.20;14.20;;;;;4.54;39.80;100582.34;6090123;28;96527;-67
2022/01/12 04:42:08;;;;;;;;;16.60;15.60;;;;;4.54;39.54;100585.03;6069211;28;96550;-66
2022/01/12 04:45:19;;;;;;;;;15.60;14.60;;;;;4.55;39.84;100592.88;6051338;28;97417;-66
2022/01/12 04:48:34;;;;;;;;;16.20;15.20;;;;;4.56;39.54;100591.03;6052566;28;98271;-66
2022/01/12 04:51:39;;;;;;;;;16.60;16.00;;;;;4.57;39.43;100588.25;6068407;28;96524;-66
2022/01/12 04:54:42;;;;;;;;;16.33;15.00;;;;;4.57;39.89;100593.59;6064816;28;97119;-66
2022/01/12 04:57:46;;;;;;;;;19.00;17.25;;;;;4.49;39.54;100579.25;6053055;28;97446;-66
2022/01/12 05:00:52;;;;;;;;;17.80;14.60;;;;;4.48;39.59;100580.22;6051756;28;98578;-66
2022/01/12 05:07:28;;;;;;;;;18.00;16.00;;;;;4.63;39.11;100602.88;6076271;28;97241;-66
2022/01/12 05:13:57;;;;;;;;;13.20;12.60;;;;;4.61;38.92;100610.16;6067016;28;96627;-67
2022/01/12 05:17:01;;;;;;;;;17.50;14.50;;;;;4.59;38.55;100606.81;6044783;28;97399;-66
2022/01/12 05:20:06;;;;;;;;;15.40;13.40;;;;;4.52;38.60;100603.00;6044221;28;99782;-66
2022/01/12 05:23:13;;;;;;;;;15.00;13.60;;;;;4.51;38.58;100606.66;6077207;28;96531;-67
2022/01/12 05:26:16;;;;;;;;;15.40;13.00;;;;;4.49;38.64;100617.50;6065940;28;97425;-66
2022/01/12 05:29:21;;;;;;;;;14.00;13.67;;;;;4.45;38.57;100608.06;6056327;28;97419;-65
2022/01/12 05:32:27;;;;;;;;;14.50;13.00;;;;;4.48;38.53;100613.13;6089114;28;97463;-66
2022/01/12 05:35:34;;;;;;;;;16.60;14.20;;;;;4.50;38.28;100612.97;6100305;28;97422;-65
2022/01/12 05:38:40;;;;;;;;;13.00;12.00;;;;;4.55;38.21;100616.06;6106171;28;96677;-67
2022/01/12 05:41:44;;;;;;;;;16.00;13.00;;;;;4.56;38.44;100620.44;6107590;28;97147;-66
2022/01/12 05:44:47;;;;;;;;;12.40;12.00;;;;;4.53;38.37;100618.91;6091472;28;97464;-65
2022/01/12 05:51:15;;;;;;;;;13.00;12.00;;;;;4.48;38.40;100618.47;6074957;28;97767;-66
2022/01/12 05:54:18;;;;;;;;;13.20;12.20;;;;;4.55;38.68;100624.06;6090434;28;96914;-65
2022/01/12 05:57:22;;;;;;;;;16.00;14.00;;;;;4.62;38.38;100627.88;6105682;28;97004;-65
2022/01/12 06:00:27;;;;;;;;;16.60;14.00;;;;;4.58;38.47;100629.16;6089549;28;97384;-67
2022/01/12 06:03:35;;;;;;;;;18.80;16.20;;;;;4.63;38.69;100634.91;6086352;28;96880;-66
2022/01/12 06:06:41;;;;;;;;;16.60;14.60;;;;;4.58;38.72;100632.66;6109451;28;98150;-65
2022/01/12 06:09:44;;;;;;;;;17.00;15.00;;;;;4.60;38.56;100637.84;6091704;28;97412;-66
2022/01/12 06:12:48;;;;;;;;;20.00;17.00;;;;;4.67;38.62;100642.50;6093854;28;98863;-66
2022/01/12 06:15:54;;;;;;;;;17.00;16.00;;;;;4.70;38.64;100644.88;6087895;28;97340;-66
2022/01/12 06:19:01;;;;;;;;;18.00;16.00;;;;;4.70;38.58;100652.06;6096942;28;97582;-67
2022/01/12 06:22:11;;;;;;;;;18.50;16.50;;;;;4.67;38.76;100658.53;6087072;28;97898;-66
2022/01/12 06:25:15;;;;;;;;;20.00;19.00;;;;;4.70;38.69;100657.41;6086571;28;98280;-67
2022/01/12 06:28:35;;;;;;;;;20.00;17.40;;;;;4.67;38.36;100652.34;6089281;28;96795;-66
2022/01/12 06:31:39;;;;;;;;;19.40;18.00;;;;;4.68;38.73;100676.25;6089661;28;96794;-68
2022/01/12 06:34:45;;;;;;;;;20.00;18.00;;;;;4.60;38.62;100636.03;6090025;28;97791;-67
2022/01/12 06:37:50;;;;;;;;;20.60;16.00;;;;;4.67;38.63;100658.53;6070236;28;97957;-67
2022/01/12 06:40:54;;;;;;;;;20.60;18.60;;;;;4.66;38.62;100654.19;6088465;28;96617;-67
2022/01/12 06:43:58;;;;;;;;;21.00;19.00;;;;;4.67;38.60;100663.88;6082807;28;97588;-68
2022/01/12 06:47:02;;;;;;;;;21.20;17.00;;;;;4.61;38.26;100661.75;6104180;28;97554;-65
2022/01/12 06:50:08;;;;;;;;;21.00;19.25;;;;;4.60;38.40;100664.56;6088756;28;98100;-66
2022/01/12 06:53:12;;;;;;;;;21.80;19.00;;;;;4.60;38.21;100676.09;6087067;28;97236;-65
2022/01/12 06:56:17;;;;;;;;;20.00;18.00;;;;;4.62;38.38;100679.50;6090322;28;96515;-65
2022/01/12 06:59:25;;;;;;;;;24.00;19.00;;;;;4.64;38.13;100677.50;6089052;28;97509;-68
2022/01/12 07:02:32;;;;;;;;;19.00;17.00;;;;;4.67;38.18;100684.41;6072422;28;97784;-68
2022/01/12 07:05:37;;;;;;;;;19.00;19.00;;;;;4.60;38.08;100680.59;6072981;28;98498;-65
2022/01/12 07:08:41;;;;;;;;;22.60;19.20;;;;;4.63;38.00;100680.34;6086676;28;96542;-65
2022/01/12 07:11:51;;;;;;;;;19.00;18.00;;;;;4.66;38.35;100682.72;6087074;28;97568;-67
2022/01/12 07:15:04;;;;;;;;;20.80;18.20;;;;;4.67;37.92;100681.75;6086847;28;96955;-67
2022/01/12 07:18:09;;;;;;;;;17.80;15.00;;;;;4.63;37.76;100697.22;6103514;28;98132;-66
2022/01/12 07:21:13;;;;;;;;;19.40;16.60;;;;;4.65;38.02;100699.72;6086246;28;97553;-66
2022/01/12 07:24:17;;;;;;;;;19.75;16.25;;;;;4.63;38.03;100709.72;6086263;28;96827;-66
2022/01/12 07:27:20;;;;;;;;;18.40;17.00;;;;;4.60;38.07;100701.97;6089287;28;97104;-67
2022/01/12 07:30:24;;;;;;;;;20.40;18.00;;;;;4.58;37.92;100695.94;6104037;28;97372;-66
2022/01/12 07:33:27;;;;;;;;;22.50;19.00;;;;;4.54;37.82;100694.53;6089515;28;97249;-67
2022/01/12 07:36:32;;;;;;;;;19.00;18.00;;;;;4.53;38.21;100695.50;6087871;28;98480;-66
2022/01/12 07:39:36;;;;;;;;;24.75;19.75;;;;;4.52;38.20;100696.47;6089914;28;96598;-67
2022/01/12 07:42:39;;;;;;;;;21.50;18.00;;;;;4.56;37.72;100711.25;6087619;28;96989;-67
2022/01/12 07:45:49;;;;;;;;;19.00;18.00;;;;;4.57;37.75;100705.78;6103255;28;96825;-67
2022/01/12 07:48:52;;;;;;;;;20.00;17.00;;;;;4.58;37.39;100711.97;6089398;28;97477;-67
2022/01/12 07:51:57;;;;;;;;;21.20;17.60;;;;;4.60;37.34;100710.81;6089018;28;97066;-67
2022/01/12 07:55:00;;;;;;;;;20.50;17.50;;;;;4.54;36.99;100708.75;6088016;28;97813;-67
2022/01/12 07:58:04;;;;;;;;;20.00;18.40;;;;;4.42;37.36;100711.66;6089762;28;97705;-66
2022/01/12 08:01:07;;;;;;;;;19.80;16.00;;;;;4.36;37.39;100710.38;6088880;28;97567;-66
2022/01/12 08:04:11;;;;;;;;;18.60;16.60;;;;;4.43;37.92;100718.69;6088876;28;96824;-67
2022/01/12 08:07:15;;;;;;;;;25.50;20.75;;;;;4.42;37.59;100715.16;6089023;28;98101;-65
2022/01/12 08:10:19;;;;;;;;;19.50;18.00;;;;;4.41;37.80;100717.97;6089024;28;97830;-65
2022/01/12 08:13:22;;;;;;;;;22.00;19.00;;;;;4.42;37.92;100709.81;6086788;28;98036;-68
2022/01/12 08:16:25;;;;;;;;;20.80;19.40;;;;;4.48;37.72;100719.13;6087751;28;96409;-67
2022/01/12 08:19:29;;;;;;;;;24.60;22.60;;;;;4.42;38.05;100717.84;6072649;28;98415;-67
2022/01/12 08:22:34;;;;;;;;;26.00;22.40;;;;;4.51;37.98;100718.84;6093026;28;97470;-66
2022/01/12 08:25:39;;;;;;;;;24.60;20.60;;;;;4.49;37.96;100720.81;6090924;28;96634;-66
2022/01/12 08:28:42;;;;;;;;;23.00;21.00;;;;;4.40;38.08;100716.31;6089963;28;96900;-65
2022/01/12 08:31:46;;;;;;;;;28.60;22.00;;;;;4.40;38.24;100718.97;6091304;28;96560;-66
2022/01/12 08:34:50;;;;;;;;;24.00;22.00;;;;;4.43;38.28;100721.34;6092218;28;96717;-67
2022/01/12 08:37:54;;;;;;;;;29.20;22.60;;;;;4.40;37.78;100725.13;6091604;28;98816;-64
2022/01/12 08:40:58;;;;;;;;;26.00;23.00;;;;;4.38;38.00;100728.94;6091657;28;99597;-65
2022/01/12 08:44:01;;;;;;;;;23.00;20.00;;;;;4.26;37.75;100707.69;6089581;28;99508;-67
2022/01/12 08:47:06;;;;;;;;;22.80;19.80;;;;;4.38;37.77;100737.78;6107172;28;96525;-66
2022/01/12 08:50:10;;;;;;;;;26.00;22.25;;;;;4.30;37.72;100734.97;6093364;28;97848;-66
2022/01/12 08:53:15;;;;;;;;;21.60;20.60;;;;;4.36;37.74;100742.41;6091895;28;97479;-66
2022/01/12 08:56:19;;;;;;;;;25.80;22.80;;;;;4.34;37.86;100742.56;6092399;28;96895;-65
2022/01/12 08:59:23;;;;;;;;;28.00;24.40;;;;;4.47;37.88;100738.78;6092267;28;97485;-66
2022/01/12 09:02:26;;;;;;;;;28.00;22.00;;;;;4.44;37.75;100744.41;6091671;28;97420;-66
2022/01/12 09:05:29;;;;;;;;;28.80;25.40;;;;;4.48;38.19;100754.69;6091776;28;97176;-66
2022/01/12 09:08:36;;;;;;;;;26.00;22.40;;;;;4.29;38.00;100750.16;6091718;28;99531;-66
2022/01/12 09:11:40;;;;;;;;;25.25;22.25;;;;;4.32;38.08;100755.19;6091595;28;99341;-65
2022/01/12 09:14:43;;;;;;;;;23.50;22.00;;;;;4.47;37.46;100746.81;6092570;28;96544;-64
2022/01/12 09:17:47;;;;;;;;;24.75;20.50;;;;;4.47;37.41;100757.47;6074763;28;98422;-64
2022/01/12 09:20:53;;;;;;;;;27.00;24.75;;;;;4.50;37.45;100738.50;6091276;28;96649;-65
2022/01/12 09:23:57;;;;;;;;;23.60;21.60;;;;;4.49;37.17;100740.34;6092113;28;96724;-65
2022/01/12 09:27:01;;;;;;;;;30.20;24.00;;;;;4.48;37.30;100744.00;6092620;28;97339;-65
2022/01/12 09:30:07;;;;;;;;;25.60;23.00;;;;;4.50;37.25;100742.03;6089228;28;97512;-67
2022/01/12 09:33:10;;;;;;;;;24.00;22.60;;;;;4.41;37.24;100728.66;6067085;28;97794;-67
2022/01/12 09:36:14;;;;;;;;;26.00;22.00;;;;;4.59;36.95;100730.53;6075203;28;99658;-65
2022/01/12 09:39:18;;;;;;;;;29.40;22.80;;;;;4.62;37.06;100721.38;6076537;28;96524;-65
2022/01/12 09:42:21;;;;;;;;;27.40;23.40;;;;;4.60;37.09;100732.19;6085404;28;97692;-65
2022/01/12 09:45:27;;;;;;;;;23.80;20.80;;;;;4.61;37.14;100725.03;6066905;28;96717;-65
2022/01/12 09:48:33;;;;;;;;;23.40;21.40;;;;;4.64;37.06;100730.13;6068586;28;97519;-64
2022/01/12 09:51:37;;;;;;;;;26.00;25.00;;;;;4.58;36.84;100728.00;6086189;28;97572;-65
2022/01/12 09:54:42;;;;;;;;;23.80;22.80;;;;;4.54;36.68;100721.25;6085524;28;97045;-67
2022/01/12 09:57:45;;;;;;;;;25.00;21.40;;;;;4.52;36.67;100710.69;6090934;28;97576;-66
2022/01/12 10:00:56;;;;;;;;;25.00;21.75;;;;;4.36;36.70;100679.19;6074651;28;97084;-67
2022/01/12 10:04:09;;;;;;;;;24.00;20.40;;;;;4.49;36.58;100689.63;6062310;28;96875;-66
2022/01/12 10:07:14;;;;;;;;;23.20;21.60;;;;;4.41;36.16;100676.09;6071452;28;97619;-65
2022/01/12 10:10:19;;;;;;;;;28.00;22.00;;;;;4.35;36.42;100677.47;6078334;28;97513;-66
2022/01/12 10:13:24;;;;;;;;;22.40;20.00;;;;;4.18;36.65;100674.66;6065770;28;97534;-66
2022/01/12 10:16:27;;;;;;;;;24.25;20.75;;;;;4.11;36.82;100666.34;6065627;28;98436;-66
2022/01/12 10:19:33;;;;;;;;;26.60;22.40;;;;;4.24;36.78;100684.78;6072936;28;97032;-66
2022/01/12 10:22:37;;;;;;;;;24.40;21.40;;;;;4.31;37.03;100678.75;6080901;28;97529;-67
2022/01/12 10:25:46;;;;;;;;;24.00;21.20;;;;;4.40;37.20;100665.56;6059696;28;96627;-67
2022/01/12 10:28:49;;;;;;;;;25.40;20.40;;;;;4.27;37.01;100647.13;6082603;28;97212;-66
2022/01/12 10:31:55;;;;;;;;;23.40;21.00;;;;;4.37;37.09;100677.34;6081858;28;99617;-67
2022/01/12 10:35:00;;;;;;;;;27.40;23.80;;;;;4.44;36.91;100677.66;6106706;28;97393;-66
2022/01/12 10:38:08;;;;;;;;;26.40;21.60;;;;;4.42;37.02;100685.78;6105151;28;98218;-68
2022/01/12 10:41:16;;;;;;;;;26.20;23.80;;;;;4.40;36.85;100694.94;6088735;28;99705;-66
2022/01/12 10:44:21;;;;;;;;;24.60;22.40;;;;;4.33;36.80;100700.81;6087772;28;98485;-67
2022/01/12 10:47:27;;;;;;;;;25.40;22.00;;;;;4.36;36.86;100697.88;6089649;28;97381;-67
2022/01/12 10:50:31;;;;;;;;;28.00;22.60;;;;;4.39;37.54;100698.59;6081198;28;97067;-67
2022/01/12 10:53:36;;;;;;;;;26.60;24.00;;;;;4.42;36.65;100680.44;6090818;28;96753;-66
2022/01/12 10:56:42;;;;;;;;;25.20;21.60;;;;;4.31;36.28;100662.72;6090622;28;97635;-66
2022/01/12 10:59:48;;;;;;;;;23.75;20.75;;;;;4.36;36.58;100671.16;6089420;28;96882;-65
2022/01/12 11:02:57;;;;;;;;;22.20;19.20;;;;;4.29;36.25;100666.53;6088974;28;97439;-66
2022/01/12 11:06:02;;;;;;;;;24.25;21.00;;;;;4.30;36.39;100670.91;6089375;28;96805;-67
2022/01/12 11:09:06;;;;;;;;;22.00;20.00;;;;;4.24;36.57;100677.63;6089780;28;97167;-65
2022/01/12 11:12:12;;;;;;;;;23.40;21.00;;;;;4.20;36.92;100670.84;6089679;28;97386;-66
2022/01/12 11:15:17;;;;;;;;;26.00;23.00;;;;;4.26;36.81;100664.97;6088936;28;97421;-65
2022/01/12 11:18:23;;;;;;;;;25.00;22.60;;;;;4.22;36.58;100650.19;6089863;28;96531;-66
2022/01/12 11:21:33;;;;;;;;;25.00;22.40;;;;;4.40;36.83;100665.56;6089811;28;97635;-64
2022/01/12 11:24:36;;;;;;;;;23.50;21.50;;;;;4.55;36.30;100670.31;6098816;28;96877;-66
2022/01/12 11:27:43;;;;;;;;;24.60;22.00;;;;;4.68;35.94;100665.56;6087057;28;97516;-65
2022/01/12 11:31:01;;;;;;;;;22.40;21.40;;;;;4.73;35.88;100662.47;6089154;28;97438;-65
2022/01/12 11:34:05;;;;;;;;;25.60;20.40;;;;;4.74;36.05;100645.47;6087306;28;97502;-66
2022/01/12 11:37:12;;;;;;;;;22.20;20.80;;;;;4.72;35.86;100661.63;6087969;28;98378;-66
2022/01/12 11:40:16;;;;;;;;;25.40;21.20;;;;;4.66;35.79;100662.19;6088203;28;96922;-66
2022/01/12 11:43:25;;;;;;;;;24.00;22.00;;;;;4.53;35.99;100660.78;6087304;28;98668;-66
2022/01/12 11:46:40;;;;;;;;;21.20;20.00;;;;;4.47;35.77;100645.31;6087555;28;97020;-67
2022/01/12 11:49:46;;;;;;;;;25.60;21.60;;;;;4.48;35.86;100649.69;6081601;28;97507;-66
2022/01/12 11:52:50;;;;;;;;;24.50;21.50;;;;;4.53;36.49;100639.41;6086529;28;96735;-67
2022/01/12 11:55:53;;;;;;;;;23.50;20.50;;;;;4.63;36.14;100638.44;6087334;28;97532;-66
2022/01/12 11:59:00;;;;;;;;;24.60;22.60;;;;;4.64;36.54;100648.13;6087095;28;98185;-67
2022/01/12 12:02:09;;;;;;;;;26.50;25.00;;;;;4.67;36.30;100645.19;6088910;28;96987;-67
2022/01/12 12:05:15;;;;;;;;;26.80;22.80;;;;;4.75;36.44;100647.13;6088446;28;97450;-66
2022/01/12 12:08:25;;;;;;;;;24.00;21.50;;;;;4.74;36.01;100638.25;6089181;28;96499;-66
2022/01/12 12:11:30;;;;;;;;;26.25;21.50;;;;;4.75;36.04;100639.97;6088216;28;97006;-66
2022/01/12 12:14:35;;;;;;;;;29.00;23.00;;;;;4.78;36.26;100631.69;6069969;28;99550;-66
2022/01/12 12:17:40;;;;;;;;;28.00;24.00;;;;;4.85;36.11;100639.09;6087049;28;98873;-65
2022/01/12 12:20:43;;;;;;;;;25.00;24.00;;;;;4.87;36.13;100648.69;6089495;28;96515;-67
2022/01/12 12:23:47;;;;;;;;;27.50;25.25;;;;;4.92;36.21;100665.13;6086211;28;97992;-67
2022/01/12 12:26:54;;;;;;;;;30.00;27.00;;;;;4.89;36.37;100664.59;6088833;28;96776;-65
2022/01/12 12:29:59;;;;;;;;;29.80;26.00;;;;;4.86;36.08;100667.53;6103127;28;97650;-67
2022/01/12 12:33:06;;;;;;;;;29.00;22.20;;;;;4.69;36.04;100659.22;6086562;28;98666;-65
2022/01/12 12:36:12;;;;;;;;;28.60;26.20;;;;;4.69;36.45;100661.91;6086261;28;97945;-66
2022/01/12 12:39:15;;;;;;;;;25.80;22.20;;;;;4.61;36.08;100659.09;6087823;28;97789;-66
2022/01/12 12:42:21;;;;;;;;;31.40;27.00;;;;;4.63;36.61;100650.94;6086645;28;96658;-67
2022/01/12 12:45:36;;;;;;;;;28.50;24.00;;;;;4.59;36.14;100652.22;6087509;28;97458;-66
2022/01/12 12:48:41;;;;;;;;;27.33;25.33;;;;;4.59;36.49;100658.41;6086843;28;97498;-66
2022/01/12 12:51:45;;;;;;;;;27.50;25.50;;;;;4.55;36.42;100658.81;6101645;28;98053;-65
2022/01/12 12:54:48;;;;;;;;;27.20;25.80;;;;;4.46;36.13;100641.78;6087441;28;96587;-65
2022/01/12 12:57:54;;;;;;;;;28.80;24.80;;;;;4.54;36.07;100646.44;6085171;28;97301;-65
2022/01/12 13:01:06;;;;;;;;;29.40;25.40;;;;;4.55;36.42;100653.47;6104274;28;96512;-65
2022/01/12 13:04:10;;;;;;;;;27.00;25.00;;;;;4.41;36.20;100636.03;6088452;28;97129;-67
2022/01/12 13:07:17;;;;;;;;;29.80;23.40;;;;;4.59;36.52;100653.06;6092034;28;97132;-66
2022/01/12 13:10:22;;;;;;;;;27.50;23.25;;;;;4.49;36.52;100649.53;6090598;28;97574;-66
2022/01/12 13:13:25;;;;;;;;;33.00;27.60;;;;;4.51;36.19;100649.38;6093212;28;96460;-66
2022/01/12 13:16:30;;;;;;;;;25.40;24.00;;;;;4.49;36.27;100648.69;6092350;28;96529;-65
2022/01/12 13:21:07;;;;;;;;;26.40;24.00;;;;;4.46;36.52;100633.78;6092788;28;96703;-64
2022/01/12 13:23:03;;;;;;;;;29.40;26.00;;;;;4.55;36.51;100632.09;6092343;28;97135;-66
2022/01/12 13:26:08;;;;;;;;;28.00;27.00;;;;;4.56;36.12;100628.44;6097798;28;97362;-66
2022/01/12 13:29:13;;;;;;;;;28.00;27.00;;;;;4.43;36.32;100623.38;6086655;28;98479;-64
2022/01/12 13:32:22;;;;;;;;;27.00;25.00;;;;;4.46;36.42;100615.09;6104780;28;97640;-64
2022/01/12 13:35:31;;;;;;;;;31.00;28.00;;;;;4.32;36.61;100615.50;6072159;28;98569;-64
2022/01/12 13:38:34;;;;;;;;;28.40;26.20;;;;;4.36;36.39;100622.25;6072805;28;96787;-65
2022/01/12 13:41:40;;;;;;;;;29.00;24.00;;;;;4.33;36.35;100628.72;6076923;28;98534;-65
2022/01/12 13:44:43;;;;;;;;;29.00;25.00;;;;;4.27;36.62;100629.28;6084119;28;97318;-65
2022/01/12 13:47:57;;;;;;;;;32.20;26.40;;;;;4.38;36.65;100619.44;6089352;28;96749;-66
2022/01/12 13:51:03;;;;;;;;;32.20;28.60;;;;;4.34;36.53;100627.75;6090410;28;97104;-65
2022/01/12 13:54:10;;;;;;;;;26.00;25.00;;;;;4.35;36.82;100617.88;6078647;28;98413;-65
2022/01/12 13:57:17;;;;;;;;;31.00;26.00;;;;;4.36;36.56;100620.44;6089705;28;98038;-66
2022/01/12 14:00:21;;;;;;;;;36.00;30.00;;;;;4.37;36.70;100605.25;6092061;28;97205;-64
2022/01/12 14:03:26;;;;;;;;;29.00;26.80;;;;;4.40;36.08;100604.97;6088696;28;99292;-67
2022/01/12 14:06:36;;;;;;;;;30.80;27.00;;;;;4.33;36.40;100601.19;6088953;28;96819;-66
2022/01/12 14:09:42;;;;;;;;;35.00;29.80;;;;;4.33;36.50;100619.88;6087310;28;97687;-67
2022/01/12 14:12:50;;;;;;;;;29.00;26.00;;;;;4.22;36.28;100620.00;6078279;28;96815;-67
2022/01/12 14:15:53;;;;;;;;;31.60;28.00;;;;;4.21;36.65;100629.81;6088473;28;97460;-68
2022/01/12 14:19:00;;;;;;;;;29.00;26.00;;;;;4.21;36.94;100626.31;6087729;28;96697;-66
2022/01/12 14:22:04;;;;;;;;;35.00;30.00;;;;;3.92;37.13;100597.75;6087856;28;98418;-65
2022/01/12 14:25:07;;;;;;;;;34.40;29.60;;;;;4.20;36.98;100633.47;6087142;28;96643;-67
2022/01/12 14:28:13;;;;;;;;;31.20;28.20;;;;;4.08;36.84;100637.25;6085840;28;97424;-65
2022/01/12 14:31:16;;;;;;;;;35.20;30.40;;;;;4.17;37.40;100633.75;6087402;28;97621;-67
2022/01/12 14:34:21;;;;;;;;;39.40;31.40;;;;;4.05;37.36;100632.22;6088920;28;97333;-66
2022/01/12 14:37:24;;;;;;;;;37.00;30.00;;;;;4.00;37.43;100639.78;6098633;28;96681;-66
2022/01/12 14:40:29;;;;;;;;;34.00;29.75;;;;;3.97;37.29;100648.03;6086956;28;124808;-65
2022/01/12 14:43:34;;;;;;;;;34.00;29.75;;;;;3.83;37.71;100648.41;6086573;28;124066;-67
2022/01/12 14:46:39;;;;;;;;;32.50;29.75;;;;;3.74;37.77;100628.75;6094175;28;124098;-66
2022/01/12 14:49:45;;;;;;;;;30.80;27.20;;;;;3.72;38.10;100636.03;6089544;28;126471;-66
2022/01/12 14:52:54;;;;;;;;;33.40;30.00;;;;;3.62;38.33;100644.97;6089608;28;124877;-66
2022/01/12 14:56:18;;;;;;;;;37.80;30.00;;;;;3.56;38.49;100625.03;6076309;28;98445;-64
2022/01/12 14:59:22;;;;;;;;;29.00;27.00;;;;;3.56;38.56;100626.88;6085073;28;97546;-65
2022/01/12 15:02:30;;;;;;;;;34.00;30.00;;;;;3.65;38.47;100626.91;6060904;28;97907;-65
2022/01/12 15:05:38;;;;;;;;;33.75;29.75;;;;;3.66;38.37;100628.59;6086578;28;97476;-67
2022/01/12 15:08:41;;;;;;;;;34.00;28.20;;;;;3.69;38.26;100622.13;6069140;28;98098;-65